Time;durP1;ratioP1;P1;durP2;ratioP2;P2;SDS_P1;SDS_P2;PMS_P1;PMS_P2;Temp;Humidity;BMP_temperature;BMP_pressure;BME280_temperature;BME280_humidity;BME280_pressure;Samples;Min_cycle;Max_cycle;Signal;HPM_P1;HPM_P2
2021/07/26 00:00:48;;;;;;;13.55;10.40;;;19.10;99.90;;;;;;5031541;28;20383;-85
2021/07/26 00:03:14;;;;;;;14.52;10.13;;;19.10;99.90;;;;;;5030376;28;20541;-87
2021/07/26 00:05:40;;;;;;;12.57;11.00;;;19.20;99.90;;;;;;5030337;28;20026;-87
2021/07/26 00:08:06;;;;;;;16.88;12.45;;;19.20;99.90;;;;;;5031559;28;20066;-87
2021/07/26 00:10:32;;;;;;;13.05;11.15;;;19.20;99.90;;;;;;5035815;28;20466;-86
2021/07/26 00:12:57;;;;;;;16.65;11.80;;;19.20;99.90;;;;;;5051125;28;20095;-88
2021/07/26 00:15:23;;;;;;;15.98;11.50;;;19.20;99.90;;;;;;5050179;28;20036;-87
2021/07/26 00:17:49;;;;;;;16.13;12.60;;;19.30;99.90;;;;;;5051154;28;20021;-87
2021/07/26 00:20:15;;;;;;;13.80;11.60;;;19.30;99.90;;;;;;5050035;28;20489;-87
2021/07/26 00:22:43;;;;;;;14.88;11.50;;;19.30;99.90;;;;;;5048847;28;20461;-89
2021/07/26 00:25:09;;;;;;;15.52;11.85;;;19.30;99.90;;;;;;5066485;28;20418;-88
2021/07/26 00:27:35;;;;;;;12.60;10.93;;;19.40;99.90;;;;;;5068900;28;20020;-86
2021/07/26 00:30:01;;;;;;;13.63;12.00;;;19.30;99.90;;;;;;5070170;28;20389;-86
2021/07/26 00:32:29;;;;;;;12.40;9.70;;;19.30;99.90;;;;;;5070095;28;20033;-88
2021/07/26 00:34:55;;;;;;;10.80;9.25;;;19.20;99.90;;;;;;5070186;28;20029;-88
2021/07/26 00:37:25;;;;;;;12.75;10.23;;;19.20;99.90;;;;;;5069069;28;20028;-88
2021/07/26 00:39:52;;;;;;;10.65;9.52;;;19.10;99.90;;;;;;5069049;28;20032;-88
2021/07/26 00:42:17;;;;;;;11.85;9.77;;;19.10;99.90;;;;;;5029734;28;20493;-88
2021/07/26 00:44:43;;;;;;;11.73;9.98;;;19.10;99.90;;;;;;5030998;28;20026;-87
2021/07/26 00:47:09;;;;;;;12.38;9.82;;;19.00;99.90;;;;;;5029640;28;20118;-88
2021/07/26 00:49:34;;;;;;;13.45;9.93;;;19.00;99.90;;;;;;5029765;28;20599;-87
2021/07/26 00:52:02;;;;;;;10.80;9.70;;;18.90;99.90;;;;;;5029454;28;20037;-88
2021/07/26 00:54:31;;;;;;;11.75;8.75;;;18.90;99.90;;;;;;5029662;28;20082;-87
2021/07/26 00:56:59;;;;;;;12.65;9.57;;;18.90;99.90;;;;;;5030612;28;20131;-87
2021/07/26 00:59:25;;;;;;;12.88;8.73;;;18.90;99.90;;;;;;5030762;28;20072;-88
2021/07/26 01:01:51;;;;;;;11.07;9.30;;;18.90;99.90;;;;;;5030729;28;20095;-88
2021/07/26 01:04:17;;;;;;;14.05;9.80;;;18.90;99.90;;;;;;5029394;28;20071;-88
2021/07/26 01:06:43;;;;;;;11.10;9.30;;;18.90;99.90;;;;;;5030561;28;20451;-88
2021/07/26 01:09:08;;;;;;;13.07;9.57;;;18.90;99.90;;;;;;5030662;28;20026;-87
2021/07/26 01:11:34;;;;;;;11.40;9.00;;;18.90;99.90;;;;;;5044177;28;20068;-88
2021/07/26 01:14:00;;;;;;;14.02;9.82;;;18.90;99.90;;;;;;5050305;28;20032;-87
2021/07/26 01:16:26;;;;;;;10.85;9.75;;;18.90;99.90;;;;;;5050503;28;20029;-87
2021/07/26 01:18:52;;;;;;;14.30;10.75;;;18.80;99.90;;;;;;5049009;28;20024;-85
2021/07/26 01:21:20;;;;;;;15.40;11.32;;;18.80;99.90;;;;;;5050255;28;20538;-86
2021/07/26 01:23:48;;;;;;;16.10;12.63;;;18.70;99.90;;;;;;5048996;27;20501;-86
2021/07/26 01:26:20;;;;;;;15.38;11.95;;;18.70;99.90;;;;;;5050269;28;20065;-86
2021/07/26 01:28:48;;;;;;;16.25;11.32;;;18.70;99.90;;;;;;5048886;28;20018;-87
2021/07/26 01:31:15;;;;;;;18.73;12.23;;;18.60;99.90;;;;;;5048882;27;20486;-87
2021/07/26 01:33:42;;;;;;;17.80;13.55;;;18.50;99.90;;;;;;5049964;28;20078;-87
2021/07/26 01:36:09;;;;;;;17.35;14.02;;;18.40;99.90;;;;;;5050084;28;20029;-87
2021/07/26 01:38:34;;;;;;;19.15;15.10;;;18.40;99.90;;;;;;5046510;28;20479;-86
2021/07/26 01:41:35;;;;;;;19.83;13.38;;;18.30;99.90;;;;;;5069869;28;20035;-86
2021/07/26 01:44:06;;;;;;;16.87;12.10;;;18.20;99.90;;;;;;5067582;27;20489;-86
2021/07/26 01:46:44;;;;;;;15.40;11.60;;;18.20;99.90;;;;;;5068556;28;20644;-86
2021/07/26 01:49:40;;;;;;;15.77;10.85;;;18.10;99.90;;;;;;5067969;28;20028;-86
2021/07/26 01:52:06;;;;;;;16.80;12.60;;;18.10;99.90;;;;;;5069663;28;20188;-86
2021/07/26 01:54:32;;;;;;;16.23;10.80;;;18.20;99.90;;;;;;5068439;28;20029;-86
2021/07/26 01:56:58;;;;;;;15.57;9.82;;;18.10;99.90;;;;;;5068964;28;20024;-86
2021/07/26 01:59:24;;;;;;;15.65;10.77;;;18.20;99.90;;;;;;5069831;28;20036;-87
2021/07/26 02:01:50;;;;;;;15.38;11.32;;;18.30;99.90;;;;;;5068317;28;20021;-86
2021/07/26 02:04:16;;;;;;;15.63;10.88;;;18.30;99.90;;;;;;5069769;28;20501;-86
2021/07/26 02:06:42;;;;;;;11.57;10.35;;;18.30;99.90;;;;;;5068287;27;20017;-86
2021/07/26 02:09:07;;;;;;;14.40;11.85;;;18.30;99.90;;;;;;5056667;28;20033;-86
2021/07/26 02:11:33;;;;;;;15.73;11.50;;;18.30;99.90;;;;;;5028456;28;20382;-87
2021/07/26 02:13:58;;;;;;;16.83;11.40;;;18.10;99.90;;;;;;5028297;28;20037;-86
2021/07/26 02:16:24;;;;;;;14.23;10.63;;;18.20;99.90;;;;;;5028534;28;20391;-86
2021/07/26 02:18:50;;;;;;;14.07;11.32;;;18.10;99.90;;;;;;5029737;28;20032;-85
2021/07/26 02:21:16;;;;;;;12.43;11.13;;;18.20;99.90;;;;;;5048653;28;20037;-87
2021/07/26 02:23:42;;;;;;;13.15;10.50;;;18.10;99.90;;;;;;5049471;28;20025;-87
2021/07/26 02:26:07;;;;;;;13.88;10.40;;;18.10;99.90;;;;;;5048211;27;20035;-87
2021/07/26 02:28:33;;;;;;;21.58;10.93;;;18.10;99.90;;;;;;5048170;27;20021;-87
2021/07/26 02:30:58;;;;;;;14.52;11.27;;;18.10;99.90;;;;;;5048107;28;20021;-86
2021/07/26 02:33:24;;;;;;;17.27;12.32;;;18.20;99.90;;;;;;5048086;27;20029;-87
2021/07/26 02:35:50;;;;;;;15.23;10.65;;;18.20;99.90;;;;;;5049287;28;20021;-86
2021/07/26 02:38:15;;;;;;;13.35;10.20;;;18.20;99.90;;;;;;5044296;28;20033;-86
2021/07/26 02:40:41;;;;;;;15.75;11.60;;;18.10;99.90;;;;;;5029459;28;20033;-86
2021/07/26 02:43:07;;;;;;;13.80;11.13;;;18.10;99.90;;;;;;5028113;28;20030;-87
2021/07/26 02:45:32;;;;;;;14.73;10.43;;;18.20;99.90;;;;;;5029368;28;20036;-87
2021/07/26 02:47:58;;;;;;;16.25;10.55;;;18.10;99.90;;;;;;5029197;28;20036;-88
2021/07/26 02:50:26;;;;;;;15.23;11.80;;;18.10;99.90;;;;;;5028173;28;20021;-86
2021/07/26 02:52:53;;;;;;;13.70;11.45;;;18.10;99.90;;;;;;5027993;28;20030;-88
2021/07/26 02:55:19;;;;;;;15.63;12.60;;;18.10;99.90;;;;;;5029162;28;20121;-87
2021/07/26 02:57:45;;;;;;;14.68;12.48;;;18.10;99.90;;;;;;5027868;28;20494;-87
2021/07/26 03:00:11;;;;;;;16.65;11.80;;;18.10;99.90;;;;;;5027905;28;20032;-88
2021/07/26 03:02:37;;;;;;;13.55;11.20;;;18.00;99.90;;;;;;5031176;28;20030;-87
2021/07/26 03:05:04;;;;;;;15.07;12.07;;;18.10;99.90;;;;;;5032036;28;20020;-87
2021/07/26 03:07:32;;;;;;;13.98;10.80;;;18.00;99.90;;;;;;5031190;28;20432;-87
2021/07/26 03:09:58;;;;;;;15.77;12.15;;;18.00;99.90;;;;;;5058176;28;20035;-87
2021/07/26 03:12:23;;;;;;;16.02;12.68;;;18.10;99.90;;;;;;5050927;28;20021;-87
2021/07/26 03:14:49;;;;;;;15.25;12.02;;;18.10;99.90;;;;;;5051077;27;20017;-87
2021/07/26 03:17:14;;;;;;;18.08;11.63;;;18.10;99.90;;;;;;5050586;27;20406;-86
2021/07/26 03:19:40;;;;;;;17.10;11.95;;;18.00;99.90;;;;;;5052249;28;20021;-87
2021/07/26 03:22:40;;;;;;;16.73;11.02;;;18.10;99.90;;;;;;5052086;28;20033;-87
2021/07/26 03:25:06;;;;;;;13.70;10.07;;;18.00;99.90;;;;;;5052177;28;20028;-86
2021/07/26 03:27:32;;;;;;;14.30;11.73;;;18.00;99.90;;;;;;5050520;27;20025;-87
2021/07/26 03:29:57;;;;;;;13.20;11.80;;;18.10;99.90;;;;;;5050699;28;20036;-86
2021/07/26 03:32:23;;;;;;;12.73;10.43;;;18.10;99.90;;;;;;5050538;28;20115;-86
2021/07/26 03:34:49;;;;;;;13.63;10.57;;;18.00;99.90;;;;;;5051853;28;20025;-86
2021/07/26 03:37:14;;;;;;;12.93;11.07;;;18.10;99.90;;;;;;5050640;27;20017;-87
2021/07/26 03:39:40;;;;;;;15.55;11.98;;;18.10;99.90;;;;;;5033251;28;20035;-87
2021/07/26 03:42:06;;;;;;;11.65;10.15;;;18.10;99.90;;;;;;5030698;28;20025;-87
2021/07/26 03:44:31;;;;;;;16.83;12.10;;;18.00;99.90;;;;;;5030687;28;20041;-86
2021/07/26 03:47:00;;;;;;;12.82;10.93;;;18.10;99.90;;;;;;5030638;28;20446;-86
2021/07/26 03:49:26;;;;;;;14.85;12.90;;;18.10;99.90;;;;;;5032914;28;20109;-85
2021/07/26 03:51:51;;;;;;;13.07;10.98;;;18.20;99.90;;;;;;5030350;28;20120;-86
2021/07/26 03:54:17;;;;;;;17.20;12.27;;;18.20;99.90;;;;;;5030412;28;20506;-86
2021/07/26 03:56:42;;;;;;;14.23;11.50;;;18.30;99.90;;;;;;5031647;28;20022;-87
2021/07/26 03:59:08;;;;;;;14.88;12.02;;;18.30;99.90;;;;;;5030541;28;20026;-86
2021/07/26 04:01:34;;;;;;;17.45;13.18;;;18.20;99.90;;;;;;5030381;28;20025;-87
2021/07/26 04:03:59;;;;;;;16.38;12.65;;;18.30;99.90;;;;;;5031670;28;20057;-86
2021/07/26 04:06:25;;;;;;;15.55;12.80;;;18.30;99.90;;;;;;5031622;28;20534;-87
2021/07/26 04:08:52;;;;;;;15.70;13.10;;;18.40;99.90;;;;;;5042649;28;20017;-87
2021/07/26 04:11:31;;;;;;;15.57;13.15;;;18.40;99.90;;;;;;5050241;28;20167;-87
2021/07/26 04:14:06;;;;;;;13.43;11.52;;;18.40;99.90;;;;;;5049725;28;20032;-87
2021/07/26 04:16:32;;;;;;;14.18;12.07;;;18.40;99.90;;;;;;5051513;28;20073;-86
2021/07/26 04:19:00;;;;;;;13.73;11.98;;;18.30;99.90;;;;;;5050123;27;20112;-87
2021/07/26 04:21:30;;;;;;;14.07;12.50;;;18.30;99.90;;;;;;5050087;28;20389;-87
2021/07/26 04:23:56;;;;;;;16.02;12.07;;;18.30;99.90;;;;;;5049978;28;20021;-86
2021/07/26 04:26:22;;;;;;;14.65;12.20;;;18.30;99.90;;;;;;5051251;28;20050;-87
2021/07/26 04:28:48;;;;;;;18.05;13.57;;;18.30;99.90;;;;;;5047840;28;20029;-87
2021/07/26 04:31:13;;;;;;;15.60;12.43;;;18.30;99.90;;;;;;5064841;28;20032;-87
2021/07/26 04:33:39;;;;;;;17.25;13.27;;;18.40;99.90;;;;;;5069527;28;20036;-87
2021/07/26 04:36:05;;;;;;;15.82;12.48;;;18.40;99.90;;;;;;5069006;28;20381;-87
2021/07/26 04:38:30;;;;;;;18.15;12.65;;;18.40;99.90;;;;;;5070907;28;20537;-87
2021/07/26 04:40:57;;;;;;;17.20;13.30;;;18.40;99.90;;;;;;5069861;28;20033;-87
2021/07/26 04:43:23;;;;;;;17.80;14.38;;;18.40;99.90;;;;;;5067885;28;20027;-87
2021/07/26 04:45:48;;;;;;;14.50;12.95;;;18.40;99.90;;;;;;5069098;28;20017;-87
2021/07/26 04:48:14;;;;;;;14.35;12.18;;;18.40;99.90;;;;;;5065556;28;20030;-87
2021/07/26 04:50:39;;;;;;;16.17;12.68;;;18.50;99.90;;;;;;5050063;28;20082;-88
2021/07/26 04:53:05;;;;;;;14.63;12.95;;;18.60;99.90;;;;;;5050553;28;20040;-87
2021/07/26 04:55:31;;;;;;;18.17;12.77;;;18.80;99.90;;;;;;5048543;28;20489;-88
2021/07/26 04:57:56;;;;;;;16.20;14.00;;;18.90;99.90;;;;;;5047562;28;20066;-87
2021/07/26 05:00:26;;;;;;;15.57;12.43;;;19.00;99.90;;;;;;5032008;28;20029;-87
2021/07/26 05:02:52;;;;;;;16.48;13.93;;;19.10;99.90;;;;;;5025763;28;20116;-87
2021/07/26 05:05:17;;;;;;;14.65;12.65;;;19.20;99.90;;;;;;5025787;28;20179;-87
2021/07/26 05:07:43;;;;;;;15.20;13.00;;;19.30;99.90;;;;;;5027474;28;20025;-87
2021/07/26 05:10:11;;;;;;;14.88;13.15;;;19.40;99.90;;;;;;5026628;28;20026;-86
2021/07/26 05:12:36;;;;;;;13.88;11.93;;;19.50;99.90;;;;;;5027184;28;20112;-87
2021/07/26 05:15:02;;;;;;;16.27;12.80;;;19.60;99.90;;;;;;5028679;28;20052;-87
2021/07/26 05:17:28;;;;;;;15.18;12.73;;;19.80;99.90;;;;;;5029229;28;20042;-88
2021/07/26 05:19:54;;;;;;;15.13;12.20;;;19.90;99.90;;;;;;5045670;28;20021;-86
2021/07/26 05:22:20;;;;;;;16.52;12.75;;;20.00;99.90;;;;;;5049094;27;20025;-87
2021/07/26 05:24:46;;;;;;;13.90;11.90;;;20.00;99.90;;;;;;5048196;27;20023;-87
2021/07/26 05:27:12;;;;;;;13.25;11.18;;;20.20;99.90;;;;;;5047988;28;20021;-87
2021/07/26 05:29:38;;;;;;;13.48;11.13;;;20.30;99.90;;;;;;5042639;28;20422;-87
2021/07/26 05:32:04;;;;;;;14.30;11.18;;;20.40;99.90;;;;;;5051854;28;20029;-88
2021/07/26 05:34:30;;;;;;;12.35;9.90;;;20.60;99.90;;;;;;5046890;27;20466;-87
2021/07/26 05:36:56;;;;;;;13.23;10.50;;;20.80;99.90;;;;;;5109374;27;20106;-87
2021/07/26 05:39:25;;;;;;;12.45;10.10;;;20.70;99.90;;;;;;5152983;27;20050;-86
2021/07/26 05:41:58;;;;;;;12.05;9.60;;;20.80;99.90;;;;;;5079685;27;20021;-87
2021/07/26 05:44:24;;;;;;;;;;;20.90;99.90;;;;;;5116219;27;20018;-86
2021/07/26 05:46:50;;;;;;;12.60;10.60;;;20.90;99.90;;;;;;5153381;27;19955;-86
2021/07/26 05:49:15;;;;;;;13.07;10.75;;;20.80;99.90;;;;;;5154807;27;20019;-86
2021/07/26 05:51:41;;;;;;;11.32;10.10;;;20.70;99.90;;;;;;5154921;27;20415;-86
2021/07/26 05:54:07;;;;;;;10.88;9.05;;;20.70;99.90;;;;;;5154649;27;20035;-86
2021/07/26 05:56:37;;;;;;;12.55;10.07;;;20.70;99.90;;;;;;5153638;27;20091;-87
2021/07/26 05:59:03;;;;;;;11.80;10.52;;;20.80;99.90;;;;;;5081996;27;20025;-84
2021/07/26 06:01:48;;;;;;;12.15;10.77;;;21.00;99.90;;;;;;5049285;28;20112;-84
2021/07/26 06:04:19;;;;;;;15.80;12.68;;;21.20;99.90;;;;;;5082638;28;20029;-84
2021/07/26 06:06:48;;;;;;;13.35;11.95;;;21.20;99.90;;;;;;5049080;28;20028;-83
2021/07/26 06:09:15;;;;;;;12.98;10.95;;;21.30;99.90;;;;;;5099456;28;20107;-85
2021/07/26 06:11:42;;;;;;;13.70;10.55;;;21.40;99.90;;;;;;5048966;28;20036;-84
2021/07/26 06:14:09;;;;;;;13.82;10.40;;;21.50;99.90;;;;;;5048849;28;20045;-84
2021/07/26 06:16:39;;;;;;;12.38;10.65;;;21.30;99.90;;;;;;5048888;28;20146;-83
2021/07/26 06:19:09;;;;;;;13.18;10.77;;;21.30;99.90;;;;;;5048467;28;20053;-85
2021/07/26 06:21:53;;;;;;;11.55;10.35;;;21.50;99.90;;;;;;5048597;28;20123;-85
2021/07/26 06:24:22;;;;;;;12.88;10.88;;;21.70;99.90;;;;;;5047140;28;20033;-85
2021/07/26 06:26:49;;;;;;;13.05;10.75;;;21.80;99.90;;;;;;5048493;28;20033;-86
2021/07/26 06:29:15;;;;;;;13.00;10.57;;;21.80;99.90;;;;;;5047784;28;20025;-85
2021/07/26 06:31:43;;;;;;;14.10;10.95;;;21.70;99.90;;;;;;5047128;28;20359;-85
2021/07/26 06:34:09;;;;;;;12.88;10.60;;;21.70;99.90;;;;;;5047113;27;20501;-86
2021/07/26 06:36:40;;;;;;;13.23;10.77;;;21.50;99.90;;;;;;5049299;27;20021;-85
2021/07/26 06:39:06;;;;;;;12.63;9.82;;;21.50;99.90;;;;;;5052944;28;20073;-86
2021/07/26 06:41:32;;;;;;;11.30;9.23;;;21.50;99.90;;;;;;5051480;28;20018;-86
2021/07/26 06:43:58;;;;;;;11.80;10.52;;;21.50;99.90;;;;;;5052789;28;20490;-85
2021/07/26 06:46:24;;;;;;;13.02;10.88;;;21.40;99.90;;;;;;5051747;28;20131;-85
2021/07/26 06:48:50;;;;;;;15.57;10.90;;;21.40;99.90;;;;;;5031339;28;20120;-85
2021/07/26 06:51:16;;;;;;;12.73;11.38;;;21.40;99.90;;;;;;5032632;28;20121;-84
2021/07/26 06:53:42;;;;;;;13.18;11.80;;;21.40;99.90;;;;;;5031775;28;20040;-84
2021/07/26 06:56:09;;;;;;;13.98;10.77;;;21.50;99.90;;;;;;5034684;27;20393;-84
2021/07/26 06:58:39;;;;;;;19.80;13.68;;;21.50;99.90;;;;;;5039288;27;20036;-83
2021/07/26 07:01:11;;;;;;;11.90;10.70;;;21.40;99.90;;;;;;5036950;27;20064;-83
2021/07/26 07:03:37;;;;;;;11.88;10.52;;;21.40;99.90;;;;;;5032428;27;20018;-84
2021/07/26 07:06:04;;;;;;;11.63;9.98;;;21.30;99.90;;;;;;5035672;27;20482;-85
2021/07/26 07:08:30;;;;;;;11.38;10.18;;;21.40;99.90;;;;;;5029674;28;20112;-85
2021/07/26 07:11:24;;;;;;;10.40;9.38;;;21.60;99.90;;;;;;5037288;27;20117;-85
2021/07/26 07:13:54;;;;;;;11.95;9.88;;;22.00;99.90;;;;;;5039318;27;20438;-86
2021/07/26 07:16:21;;;;;;;10.85;7.68;;;22.20;99.90;;;;;;5048611;27;20041;-86
2021/07/26 07:18:49;;;;;;;8.80;7.65;;;22.30;99.90;;;;;;5049530;27;20424;-86
2021/07/26 07:21:22;;;;;;;8.60;7.70;;;22.40;99.90;;;;;;5049107;27;20077;-85
2021/07/26 07:23:48;;;;;;;9.43;8.50;;;22.30;99.90;;;;;;5048052;27;20089;-85
2021/07/26 07:26:15;;;;;;;8.57;7.28;;;22.30;99.90;;;;;;5039961;27;20038;-85
2021/07/26 07:28:41;;;;;;;9.27;7.85;;;22.40;99.90;;;;;;5038528;28;20700;-84
2021/07/26 07:31:07;;;;;;;8.52;7.65;;;22.30;99.90;;;;;;5047641;27;20037;-85
2021/07/26 07:33:33;;;;;;;8.70;7.22;;;22.20;99.90;;;;;;5049292;27;20041;-85
2021/07/26 07:36:06;;;;;;;7.80;6.97;;;22.10;99.90;;;;;;5048884;27;20044;-84
2021/07/26 07:38:33;;;;;;;10.63;7.70;;;22.00;99.90;;;;;;5050485;27;20044;-84
2021/07/26 07:40:59;;;;;;;8.55;7.60;;;21.90;99.90;;;;;;5048629;27;20026;-84
2021/07/26 07:43:26;;;;;;;8.93;8.00;;;21.70;99.90;;;;;;5049412;27;20021;-84
2021/07/26 07:45:54;;;;;;;10.65;8.80;;;21.70;99.90;;;;;;5050133;27;20033;-85
2021/07/26 07:48:20;;;;;;;10.30;8.00;;;21.70;99.90;;;;;;5052296;27;20021;-84
2021/07/26 07:50:46;;;;;;;8.35;7.30;;;21.70;99.90;;;;;;5065827;27;20108;-84
2021/07/26 07:53:12;;;;;;;9.25;7.05;;;21.60;99.90;;;;;;5057456;27;20121;-84
2021/07/26 07:55:37;;;;;;;7.82;6.47;;;21.70;99.90;;;;;;5041234;27;20027;-84
2021/07/26 07:58:04;;;;;;;6.97;5.80;;;21.80;99.90;;;;;;5027829;28;20112;-85
2021/07/26 08:00:29;;;;;;;7.22;6.47;;;22.00;99.90;;;;;;5026625;28;20090;-83
2021/07/26 08:02:56;;;;;;;8.70;6.47;;;22.00;99.90;;;;;;5028466;28;20017;-84
2021/07/26 08:05:21;;;;;;;9.00;7.45;;;22.40;99.90;;;;;;5025722;27;20041;-85
2021/07/26 08:07:47;;;;;;;10.48;8.18;;;22.50;99.90;;;;;;5030321;28;20435;-84
2021/07/26 08:10:15;;;;;;;7.82;7.00;;;22.40;99.90;;;;;;5031728;27;20125;-84
2021/07/26 08:12:42;;;;;;;8.13;7.32;;;22.30;99.90;;;;;;5030373;28;20030;-84
2021/07/26 08:15:08;;;;;;;8.15;7.38;;;22.10;99.90;;;;;;5027758;28;20136;-84
2021/07/26 08:17:42;;;;;;;8.35;7.15;;;22.20;99.90;;;;;;5028637;28;20014;-82
2021/07/26 08:20:12;;;;;;;8.80;7.38;;;22.20;99.90;;;;;;5027582;27;20070;-82
2021/07/26 08:22:38;;;;;;;10.15;7.28;;;22.20;99.90;;;;;;5031074;27;20060;-84
2021/07/26 08:25:05;;;;;;;9.15;7.30;;;22.20;99.90;;;;;;5029094;27;20032;-84
2021/07/26 08:27:32;;;;;;;8.43;6.90;;;22.40;99.90;;;;;;5028629;28;20018;-84
2021/07/26 08:29:58;;;;;;;9.15;7.38;;;22.50;99.90;;;;;;5027610;27;20105;-81
2021/07/26 08:32:23;;;;;;;7.05;6.35;;;22.60;99.90;;;;;;5029621;28;20021;-81
2021/07/26 08:34:49;;;;;;;7.43;6.25;;;22.50;99.90;;;;;;5034895;28;20047;-83
2021/07/26 08:37:27;;;;;;;8.13;7.32;;;22.40;99.90;;;;;;5099426;27;20077;-83
2021/07/26 08:39:53;;;;;;;7.68;6.10;;;22.40;99.90;;;;;;5049260;28;20024;-83
2021/07/26 08:42:18;;;;;;;8.13;7.18;;;22.50;99.90;;;;;;5046720;28;20044;-83
2021/07/26 08:44:44;;;;;;;7.88;6.22;;;22.80;99.90;;;;;;5048018;28;20502;-83
2021/07/26 08:47:11;;;;;;;6.63;5.20;;;23.40;99.90;;;;;;5049563;28;20064;-84
2021/07/26 08:49:38;;;;;;;6.15;5.55;;;23.80;99.70;;;;;;5049073;28;20059;-83
2021/07/26 08:52:04;;;;;;;7.43;4.55;;;24.10;99.00;;;;;;5050779;28;20033;-83
2021/07/26 08:54:30;;;;;;;6.28;4.32;;;23.90;92.10;;;;;;5049377;28;20125;-83
2021/07/26 08:56:57;;;;;;;6.50;5.05;;;23.70;90.60;;;;;;5039078;28;20450;-83
2021/07/26 08:59:23;;;;;;;7.00;4.68;;;23.50;93.70;;;;;;5039923;28;20543;-83
2021/07/26 09:01:53;;;;;;;5.63;4.45;;;23.50;93.10;;;;;;5039005;28;20022;-83
2021/07/26 09:04:18;;;;;;;4.97;4.35;;;23.50;94.40;;;;;;5040750;28;20021;-83
2021/07/26 09:06:46;;;;;;;7.80;5.03;;;23.50;91.20;;;;;;5037775;28;20036;-83
2021/07/26 09:09:11;;;;;;;5.40;4.82;;;23.60;95.20;;;;;;5039378;28;20021;-83
2021/07/26 09:11:46;;;;;;;5.40;4.80;;;23.50;93.60;;;;;;5045028;27;20026;-82
2021/07/26 09:14:38;;;;;;;6.75;5.15;;;23.50;96.30;;;;;;5090583;27;20037;-82
2021/07/26 09:17:05;;;;;;;5.70;5.20;;;23.20;95.70;;;;;;5108507;27;20129;-82
2021/07/26 09:20:01;;;;;;;6.43;5.82;;;22.90;95.50;;;;;;5061296;27;20014;-83
2021/07/26 09:22:31;;;;;;;10.05;6.13;;;22.70;98.30;;;;;;5055248;27;20029;-83
2021/07/26 09:25:20;;;;;;;6.78;6.10;;;22.40;99.90;;;;;;5093570;27;20026;-83
2021/07/26 09:27:57;;;;;;;6.90;6.18;;;22.30;99.90;;;;;;5097668;27;20380;-82
2021/07/26 09:30:25;;;;;;;8.73;6.15;;;22.00;99.90;;;;;;5086072;27;20536;-82
2021/07/26 09:32:50;;;;;;;8.13;6.47;;;22.00;99.90;;;;;;5104588;27;20072;-82
2021/07/26 09:35:21;;;;;;;7.55;6.53;;;22.20;99.90;;;;;;5096172;27;20404;-82
2021/07/26 09:37:56;;;;;;;6.40;5.75;;;22.40;99.90;;;;;;5092256;27;20029;-82
2021/07/26 09:40:23;;;;;;;6.38;5.18;;;22.90;99.90;;;;;;5082813;27;20021;-82
2021/07/26 09:42:50;;;;;;;8.73;5.72;;;23.30;99.90;;;;;;5047431;28;20021;-82
2021/07/26 09:45:24;;;;;;;7.15;5.43;;;23.90;99.90;;;;;;5046669;28;20062;-82
2021/07/26 09:48:16;;;;;;;7.75;5.70;;;24.20;95.20;;;;;;5047788;28;20017;-82
2021/07/26 09:50:46;;;;;;;;;;;24.30;88.10;;;;;;5048264;28;20035;-82
2021/07/26 09:53:25;;;;;;;6.10;5.50;;;24.10;88.10;;;;;;5048650;28;19999;-82
2021/07/26 09:55:56;;;;;;;8.02;5.18;;;24.20;89.60;;;;;;5048750;28;20069;-82
2021/07/26 09:58:37;;;;;;;5.80;5.30;;;24.00;91.90;;;;;;5049934;28;20031;-82
2021/07/26 10:01:04;;;;;;;8.95;5.88;;;23.70;91.20;;;;;;5049833;28;20043;-82
2021/07/26 10:03:30;;;;;;;6.63;5.97;;;23.60;94.20;;;;;;5049810;28;20043;-82
2021/07/26 10:05:58;;;;;;;6.75;6.07;;;23.40;94.70;;;;;;5049791;28;20074;-82
2021/07/26 10:08:23;;;;;;;8.15;5.43;;;23.70;97.40;;;;;;5049841;28;20496;-83
2021/07/26 10:10:49;;;;;;;5.80;5.18;;;24.00;96.80;;;;;;5050758;28;20021;-82
2021/07/26 10:13:18;;;;;;;7.25;6.32;;;24.00;92.20;;;;;;5047917;28;20025;-82
2021/07/26 10:15:45;;;;;;;6.65;6.03;;;24.00;91.50;;;;;;5032028;28;20051;-82
2021/07/26 10:18:10;;;;;;;7.00;5.95;;;24.00;92.10;;;;;;5033294;28;20021;-82
2021/07/26 10:20:39;;;;;;;6.45;5.80;;;23.90;92.30;;;;;;5032079;28;20022;-82
2021/07/26 10:23:15;;;;;;;10.23;6.00;;;23.70;90.30;;;;;;5031972;28;20505;-82
2021/07/26 10:26:00;;;;;;;7.00;6.30;;;23.70;94.10;;;;;;5044840;27;20032;-82
2021/07/26 10:28:40;;;;;;;6.72;6.10;;;23.90;91.60;;;;;;5051765;28;20036;-82
2021/07/26 10:31:27;;;;;;;7.43;6.53;;;24.20;92.30;;;;;;5053008;28;20017;-82
2021/07/26 10:34:02;;;;;;;12.40;7.43;;;24.20;89.30;;;;;;5051506;28;20089;-82
2021/07/26 10:36:43;;;;;;;7.53;6.38;;;24.70;89.40;;;;;;5052710;28;20485;-82
2021/07/26 10:39:12;;;;;;;7.13;6.47;;;24.80;82.80;;;;;;5050926;28;20040;-82
2021/07/26 10:41:44;;;;;;;7.10;6.40;;;24.90;83.00;;;;;;5051178;27;20025;-82
2021/07/26 10:44:15;;;;;;;6.82;6.20;;;25.20;82.60;;;;;;5106722;27;20032;-82
2021/07/26 10:46:53;;;;;;;7.15;6.45;;;25.10;79.00;;;;;;5099662;27;20042;-82
2021/07/26 10:49:37;;;;;;;7.18;6.47;;;25.10;79.70;;;;;;5101130;27;20120;-82
2021/07/26 10:52:03;;;;;;;8.05;6.80;;;25.00;82.00;;;;;;5104986;27;20036;-82
2021/07/26 10:54:34;;;;;;;7.28;6.55;;;24.80;76.40;;;;;;5096426;27;20063;-82
2021/07/26 10:57:04;;;;;;;7.03;6.07;;;25.30;79.20;;;;;;5100750;27;20042;-82
2021/07/26 10:59:50;;;;;;;7.93;7.18;;;25.60;76.70;;;;;;5108586;27;20034;-82
2021/07/26 11:02:35;;;;;;;7.95;6.20;;;25.80;72.50;;;;;;5098065;27;20032;-82
2021/07/26 11:05:26;;;;;;;7.05;6.35;;;25.90;74.50;;;;;;5104807;27;20021;-82
2021/07/26 11:08:18;;;;;;;6.80;6.15;;;25.90;71.40;;;;;;5096791;27;20493;-82
2021/07/26 11:10:53;;;;;;;5.80;5.35;;;25.60;72.20;;;;;;5100695;27;20025;-82
2021/07/26 11:13:19;;;;;;;6.63;6.10;;;25.70;74.20;;;;;;5088986;27;20040;-82
2021/07/26 11:15:51;;;;;;;6.97;6.38;;;25.80;75.30;;;;;;5102466;27;20021;-82
2021/07/26 11:18:20;;;;;;;;;;;26.00;76.90;;;;;;5094432;27;20017;-82
2021/07/26 11:21:02;;;;;;;7.03;6.32;;;26.20;73.20;;;;;;5110375;27;20505;-82
2021/07/26 11:23:40;;;;;;;8.10;5.72;;;26.20;69.60;;;;;;5090934;27;20036;-82
2021/07/26 11:26:16;;;;;;;6.22;5.68;;;26.30;70.60;;;;;;5052145;28;20025;-82
2021/07/26 11:28:42;;;;;;;6.00;5.47;;;25.90;68.90;;;;;;5050911;28;20505;-82
2021/07/26 11:31:08;;;;;;;6.30;5.72;;;26.10;69.30;;;;;;5050858;28;20084;-82
2021/07/26 11:33:34;;;;;;;6.25;5.65;;;26.10;70.30;;;;;;5051899;28;20112;-82
2021/07/26 11:36:00;;;;;;;6.10;5.53;;;26.20;71.00;;;;;;5051988;28;20025;-82
2021/07/26 11:38:26;;;;;;;6.45;5.85;;;26.30;68.80;;;;;;5051997;28;20033;-82
2021/07/26 11:40:52;;;;;;;6.85;5.53;;;26.40;71.10;;;;;;5050599;28;20036;-82
2021/07/26 11:43:35;;;;;;;6.22;5.65;;;26.70;69.40;;;;;;5054227;27;20025;-82
2021/07/26 11:46:01;;;;;;;6.10;5.50;;;26.70;67.30;;;;;;5099950;27;20465;-82
2021/07/26 11:48:27;;;;;;;6.60;6.10;;;26.80;67.00;;;;;;5102041;27;20023;-82
2021/07/26 11:50:53;;;;;;;6.60;5.65;;;26.90;68.40;;;;;;5108148;27;20038;-82
2021/07/26 11:53:27;;;;;;;5.60;5.10;;;26.60;67.60;;;;;;5096845;27;20039;-82
2021/07/26 11:55:52;;;;;;;6.88;5.95;;;26.70;69.70;;;;;;5108059;27;20014;-82
2021/07/26 11:58:27;;;;;;;6.50;5.90;;;26.50;68.20;;;;;;5077090;27;20029;-82
2021/07/26 12:00:54;;;;;;;5.80;5.28;;;26.50;69.80;;;;;;5050482;28;20580;-82
2021/07/26 12:03:23;;;;;;;7.80;6.20;;;26.40;71.00;;;;;;5038654;28;20033;-82
2021/07/26 12:06:00;;;;;;;6.38;5.78;;;26.10;68.90;;;;;;5030398;28;20029;-82
2021/07/26 12:08:27;;;;;;;7.70;6.07;;;26.50;70.40;;;;;;5030548;28;20033;-82
2021/07/26 12:10:53;;;;;;;8.30;5.72;;;26.80;69.60;;;;;;5031578;28;20041;-82
2021/07/26 12:13:20;;;;;;;7.47;5.75;;;27.00;67.60;;;;;;5030188;28;20436;-82
2021/07/26 12:16:05;;;;;;;9.38;6.07;;;27.30;67.90;;;;;;5030229;28;20017;-82
2021/07/26 12:18:32;;;;;;;7.80;6.40;;;27.40;66.60;;;;;;5053161;27;20022;-82
2021/07/26 12:20:58;;;;;;;7.45;6.75;;;27.30;65.20;;;;;;5106096;27;20481;-82
2021/07/26 12:23:32;;;;;;;6.88;6.28;;;27.30;64.00;;;;;;5095174;27;20486;-82
2021/07/26 12:26:04;;;;;;;7.15;6.13;;;27.30;63.90;;;;;;5097831;27;20376;-82
2021/07/26 12:28:45;;;;;;;8.90;6.63;;;27.40;65.80;;;;;;5097720;27;20055;-82
2021/07/26 12:31:29;;;;;;;6.85;6.15;;;27.30;65.30;;;;;;5097612;27;20025;-82
2021/07/26 12:34:18;;;;;;;7.97;6.45;;;27.60;64.20;;;;;;5100800;27;20485;-82
2021/07/26 12:36:45;;;;;;;7.35;6.65;;;27.70;64.30;;;;;;5154335;27;20379;-82
2021/07/26 12:39:12;;;;;;;7.60;6.90;;;27.70;62.00;;;;;;5153053;27;20511;-83
2021/07/26 12:41:39;;;;;;;7.97;7.20;;;27.80;62.60;;;;;;5031115;28;20022;-82
2021/07/26 12:44:27;;;;;;;7.22;6.40;;;28.00;63.20;;;;;;5029820;28;20028;-82